Time;durP1;ratioP1;P1;durP2;ratioP2;P2;SDS_P1;SDS_P2;PMS_P1;PMS_P2;Temp;Humidity;BMP_temperature;BMP_pressure;BME280_temperature;BME280_humidity;BME280_pressure;Samples;Min_cycle;Max_cycle;Signal;HPM_P1;HPM_P2
2021/10/14 00:02:09;;;;;;;6.40;3.10;;;3.60;94.60;;;;;;5020220;28;20517;-68
2021/10/14 00:04:35;;;;;;;3.90;2.85;;;3.60;94.80;;;;;;5024053;28;20095;-68
2021/10/14 00:07:00;;;;;;;4.03;3.50;;;3.70;94.60;;;;;;5023947;28;20030;-68
2021/10/14 00:09:26;;;;;;;3.83;3.38;;;3.60;94.10;;;;;;5021972;28;20032;-68
2021/10/14 00:11:51;;;;;;;5.53;2.90;;;3.60;94.10;;;;;;5022607;28;20059;-68
2021/10/14 00:14:17;;;;;;;5.38;3.03;;;3.60;94.30;;;;;;5024984;28;20034;-68
2021/10/14 00:16:43;;;;;;;3.65;2.83;;;3.60;94.10;;;;;;5019430;28;20030;-68
2021/10/14 00:19:08;;;;;;;6.10;3.55;;;3.50;94.30;;;;;;5023582;28;20029;-68
2021/10/14 00:21:34;;;;;;;7.00;3.42;;;3.50;94.40;;;;;;5022847;28;20037;-68
2021/10/14 00:24:00;;;;;;;3.10;2.55;;;3.50;93.60;;;;;;5018523;28;20390;-68
2021/10/14 00:26:25;;;;;;;8.82;2.92;;;3.40;93.90;;;;;;5019741;28;20025;-68
2021/10/14 00:28:51;;;;;;;6.43;2.67;;;3.30;93.60;;;;;;5020947;28;20055;-68
2021/10/14 00:31:16;;;;;;;5.35;3.25;;;3.20;93.50;;;;;;5021352;28;20130;-68
2021/10/14 00:33:42;;;;;;;4.00;2.88;;;3.20;93.30;;;;;;5022715;28;20065;-68
2021/10/14 00:36:08;;;;;;;3.88;2.70;;;3.20;92.80;;;;;;5020018;28;20449;-69
2021/10/14 00:38:33;;;;;;;4.90;2.97;;;3.10;92.90;;;;;;5022342;28;20033;-68
2021/10/14 00:40:59;;;;;;;4.45;3.40;;;3.10;92.80;;;;;;5022251;28;20037;-69
2021/10/14 00:43:24;;;;;;;4.32;2.83;;;3.10;92.80;;;;;;5020990;28;20549;-68
2021/10/14 00:45:50;;;;;;;4.18;2.38;;;3.00;93.00;;;;;;5022774;28;20394;-69
2021/10/14 00:48:16;;;;;;;3.67;2.75;;;3.00;93.00;;;;;;5022090;28;20033;-68
2021/10/14 00:50:41;;;;;;;3.20;2.80;;;3.00;93.30;;;;;;5020018;28;20059;-69
2021/10/14 00:53:08;;;;;;;3.63;2.78;;;2.90;93.20;;;;;;5020747;28;20072;-68
2021/10/14 00:55:35;;;;;;;3.10;2.33;;;2.90;93.40;;;;;;5021932;28;20087;-68
2021/10/14 00:58:01;;;;;;;3.17;2.83;;;2.80;93.80;;;;;;5022850;28;20045;-68
2021/10/14 01:00:27;;;;;;;3.70;2.60;;;2.90;94.30;;;;;;5022535;28;20021;-68
2021/10/14 01:02:52;;;;;;;3.97;2.70;;;2.90;94.10;;;;;;5017405;28;20446;-68
2021/10/14 01:05:18;;;;;;;4.15;2.88;;;2.80;93.40;;;;;;5022027;28;20053;-67
2021/10/14 01:07:44;;;;;;;4.97;2.58;;;2.80;93.00;;;;;;5020603;28;20398;-68
2021/10/14 01:10:10;;;;;;;3.38;2.47;;;2.80;93.10;;;;;;5025138;28;20093;-68
2021/10/14 01:12:37;;;;;;;3.60;2.65;;;2.80;93.60;;;;;;5029304;28;20040;-68
2021/10/14 01:15:36;;;;;;;4.75;2.70;;;2.80;93.70;;;;;;5027977;28;20109;-68
2021/10/14 01:18:01;;;;;;;3.97;2.95;;;2.70;94.60;;;;;;5015834;28;20037;-68
2021/10/14 01:20:28;;;;;;;3.80;2.85;;;2.70;95.20;;;;;;5026641;28;20053;-68
2021/10/14 01:22:54;;;;;;;5.40;3.00;;;2.70;95.20;;;;;;5041147;28;20026;-68
2021/10/14 01:25:20;;;;;;;3.80;2.75;;;2.80;95.40;;;;;;5026525;28;20025;-68
2021/10/14 01:27:48;;;;;;;3.80;2.70;;;2.80;95.20;;;;;;5027604;28;20096;-69
2021/10/14 01:30:14;;;;;;;2.83;2.58;;;2.80;95.10;;;;;;5027631;28;20076;-69
2021/10/14 01:32:40;;;;;;;4.43;2.90;;;2.80;94.30;;;;;;5024687;28;20108;-69
2021/10/14 01:35:06;;;;;;;3.45;2.50;;;2.80;93.50;;;;;;5042443;28;20218;-69
2021/10/14 01:37:32;;;;;;;5.03;2.88;;;2.80;94.20;;;;;;5028111;28;20037;-68
2021/10/14 01:39:59;;;;;;;3.35;2.50;;;2.70;94.30;;;;;;5026926;28;20055;-69
2021/10/14 01:42:25;;;;;;;5.80;2.80;;;2.60;94.20;;;;;;5026147;28;20103;-68
2021/10/14 01:44:50;;;;;;;4.15;3.45;;;2.60;93.80;;;;;;5028130;28;20030;-73
2021/10/14 01:47:16;;;;;;;5.43;3.40;;;2.60;94.10;;;;;;5026259;28;20080;-69
2021/10/14 01:49:41;;;;;;;4.05;3.13;;;2.60;94.40;;;;;;5026345;28;20026;-68
2021/10/14 01:52:07;;;;;;;4.80;2.75;;;2.60;94.40;;;;;;5027758;28;20490;-68
2021/10/14 01:54:33;;;;;;;5.38;2.92;;;2.60;94.10;;;;;;5026977;28;20034;-69
2021/10/14 01:56:59;;;;;;;5.13;2.97;;;2.50;94.50;;;;;;5024489;28;20037;-68
2021/10/14 01:59:24;;;;;;;4.18;3.15;;;2.50;94.30;;;;;;5023435;28;20199;-69
2021/10/14 02:01:50;;;;;;;5.45;3.17;;;2.50;93.60;;;;;;5026722;28;20088;-69
2021/10/14 02:04:15;;;;;;;4.95;3.15;;;2.50;93.50;;;;;;5028260;28;20501;-68
2021/10/14 02:06:41;;;;;;;8.23;3.70;;;2.40;92.90;;;;;;5041461;28;20029;-69
2021/10/14 02:09:06;;;;;;;3.25;2.63;;;2.30;93.30;;;;;;5028985;28;20029;-69
2021/10/14 02:11:32;;;;;;;5.25;3.45;;;2.30;93.50;;;;;;5026280;28;20021;-69
2021/10/14 02:13:58;;;;;;;4.60;2.63;;;2.40;94.30;;;;;;5027183;28;20021;-68
2021/10/14 02:16:25;;;;;;;5.32;2.95;;;2.30;93.80;;;;;;5026096;28;20029;-69
2021/10/14 02:18:50;;;;;;;3.60;2.78;;;2.30;93.70;;;;;;5019339;28;20117;-69
2021/10/14 02:21:17;;;;;;;5.00;3.28;;;2.20;94.00;;;;;;5023363;28;20522;-69
2021/10/14 02:23:43;;;;;;;5.25;3.50;;;2.30;94.00;;;;;;5024725;28;20395;-69
2021/10/14 02:26:09;;;;;;;4.18;3.28;;;2.30;95.10;;;;;;5022762;28;20029;-69
2021/10/14 02:28:35;;;;;;;5.90;3.70;;;2.40;96.10;;;;;;5024673;28;20457;-68
2021/10/14 02:31:01;;;;;;;7.13;3.33;;;2.40;96.40;;;;;;5023826;28;20128;-68
2021/10/14 02:33:26;;;;;;;4.22;3.35;;;2.50;96.60;;;;;;5023194;28;20084;-68
2021/10/14 02:35:52;;;;;;;5.80;3.25;;;2.50;96.80;;;;;;5024849;28;20108;-68
2021/10/14 02:38:18;;;;;;;5.40;3.50;;;2.60;96.90;;;;;;5023142;28;20033;-68
2021/10/14 02:40:43;;;;;;;4.93;3.13;;;2.60;96.80;;;;;;5024370;28;20079;-69
2021/10/14 02:43:09;;;;;;;6.55;3.58;;;2.70;96.70;;;;;;5022129;28;20030;-66
2021/10/14 02:45:34;;;;;;;4.20;3.38;;;2.60;96.20;;;;;;5022800;28;20512;-65
2021/10/14 02:48:00;;;;;;;5.43;4.15;;;2.60;95.20;;;;;;5026054;28;20030;-65
2021/10/14 02:50:26;;;;;;;6.57;3.42;;;2.60;95.00;;;;;;5023018;28;20116;-65
2021/10/14 02:52:52;;;;;;;5.03;3.38;;;2.60;95.60;;;;;;5023454;28;20029;-65
2021/10/14 02:55:17;;;;;;;7.57;4.72;;;2.60;96.00;;;;;;5025383;28;20044;-65
2021/10/14 02:57:43;;;;;;;7.60;4.85;;;2.70;96.40;;;;;;5024254;28;20078;-66
2021/10/14 03:00:09;;;;;;;8.60;4.57;;;2.70;96.20;;;;;;5028461;28;20152;-65
2021/10/14 03:02:34;;;;;;;5.47;4.45;;;2.70;96.20;;;;;;5026902;28;20042;-65
2021/10/14 03:05:01;;;;;;;6.28;4.35;;;2.80;96.50;;;;;;5027099;28;20033;-67
2021/10/14 03:07:26;;;;;;;7.32;4.45;;;2.80;96.70;;;;;;5026855;28;20049;-67
2021/10/14 03:09:52;;;;;;;5.82;4.13;;;2.80;96.40;;;;;;5028495;28;20164;-67
2021/10/14 03:12:18;;;;;;;6.95;4.70;;;2.90;96.60;;;;;;5028825;28;20025;-67
2021/10/14 03:14:43;;;;;;;4.78;4.03;;;2.90;96.40;;;;;;5027521;28;20029;-67
2021/10/14 03:17:09;;;;;;;6.03;3.65;;;2.90;95.90;;;;;;5027287;28;20025;-67
2021/10/14 03:19:36;;;;;;;5.97;4.32;;;2.80;95.20;;;;;;5026878;28;20069;-67
2021/10/14 03:22:03;;;;;;;5.72;3.38;;;2.80;95.20;;;;;;5028393;28;20037;-67
2021/10/14 03:24:29;;;;;;;6.07;3.83;;;2.80;96.10;;;;;;5029511;28;20390;-67
2021/10/14 03:26:55;;;;;;;9.50;4.60;;;2.80;96.40;;;;;;5028773;28;20024;-67
2021/10/14 03:29:20;;;;;;;10.23;5.10;;;2.90;96.70;;;;;;5030987;28;20391;-67
2021/10/14 03:31:46;;;;;;;8.85;4.63;;;2.90;96.60;;;;;;5026081;28;20434;-67
2021/10/14 03:34:12;;;;;;;10.25;5.43;;;3.00;96.60;;;;;;5028718;28;20052;-67
2021/10/14 03:36:37;;;;;;;10.43;6.30;;;3.00;96.90;;;;;;5029002;28;20030;-67
2021/10/14 03:39:03;;;;;;;6.28;4.55;;;3.00;96.50;;;;;;5021173;28;20113;-67
2021/10/14 03:41:29;;;;;;;8.82;4.75;;;2.90;96.70;;;;;;5026434;28;20105;-68
2021/10/14 03:43:55;;;;;;;9.75;4.20;;;3.00;96.40;;;;;;5029090;28;20117;-67
2021/10/14 03:46:20;;;;;;;5.35;3.45;;;3.10;96.30;;;;;;5028259;28;20021;-67
2021/10/14 03:48:46;;;;;;;6.47;4.78;;;3.10;96.30;;;;;;5025865;28;20021;-67
2021/10/14 03:51:11;;;;;;;7.53;4.38;;;3.10;96.40;;;;;;5028974;28;20474;-67
2021/10/14 03:53:37;;;;;;;11.73;4.80;;;3.00;96.30;;;;;;5028976;28;20029;-67
2021/10/14 03:56:03;;;;;;;8.30;3.95;;;3.00;96.30;;;;;;5027579;28;20104;-67
2021/10/14 03:58:28;;;;;;;7.47;4.15;;;3.00;96.30;;;;;;5027791;28;20026;-68
2021/10/14 04:00:54;;;;;;;7.68;4.60;;;3.00;96.40;;;;;;5026321;28;20514;-68
2021/10/14 04:03:20;;;;;;;6.35;4.03;;;3.00;96.30;;;;;;5029018;28;20029;-67
2021/10/14 04:05:45;;;;;;;6.20;4.30;;;3.00;96.40;;;;;;5027078;28;20453;-67
2021/10/14 04:08:11;;;;;;;7.25;4.90;;;3.00;96.50;;;;;;5028282;28;20036;-67
2021/10/14 04:10:37;;;;;;;9.40;4.78;;;3.00;96.50;;;;;;5029076;28;20104;-67
2021/10/14 04:13:04;;;;;;;6.53;4.53;;;3.00;96.40;;;;;;5023088;28;20029;-68
2021/10/14 04:15:29;;;;;;;10.30;5.00;;;3.00;96.70;;;;;;5029840;28;20037;-67
2021/10/14 04:17:55;;;;;;;8.20;5.00;;;3.00;96.20;;;;;;5028602;28;20495;-67
2021/10/14 04:20:21;;;;;;;11.63;5.45;;;3.00;96.30;;;;;;5023406;28;20108;-67
2021/10/14 04:22:46;;;;;;;7.15;4.88;;;3.00;96.10;;;;;;5024129;28;20716;-68
2021/10/14 04:25:12;;;;;;;9.55;4.97;;;3.00;96.20;;;;;;5024004;28;20032;-67
2021/10/14 04:27:38;;;;;;;8.20;4.47;;;3.00;96.20;;;;;;5021537;28;20034;-68
2021/10/14 04:30:05;;;;;;;8.73;5.05;;;3.00;96.50;;;;;;5027450;28;20513;-67
2021/10/14 04:32:31;;;;;;;7.47;5.25;;;3.00;96.20;;;;;;5025831;28;20042;-67
2021/10/14 04:34:57;;;;;;;14.40;7.03;;;3.00;96.20;;;;;;5027673;28;20095;-68
2021/10/14 04:37:22;;;;;;;17.40;7.38;;;3.10;96.30;;;;;;5027662;28;20071;-67
2021/10/14 04:39:50;;;;;;;11.50;6.35;;;3.10;96.30;;;;;;5023532;28;20474;-67
2021/10/14 04:42:16;;;;;;;9.02;5.90;;;3.10;96.30;;;;;;5024631;28;20138;-67
2021/10/14 04:44:42;;;;;;;10.43;5.93;;;3.20;96.30;;;;;;5026725;28;20036;-67
2021/10/14 04:47:08;;;;;;;8.15;4.53;;;3.20;96.50;;;;;;5027054;28;20026;-67
2021/10/14 04:49:34;;;;;;;13.05;7.18;;;3.20;96.60;;;;;;5027544;28;20029;-67
2021/10/14 04:52:00;;;;;;;9.02;5.07;;;3.30;96.60;;;;;;5027430;28;20097;-67
2021/10/14 04:54:26;;;;;;;8.65;5.35;;;3.30;96.50;;;;;;5026008;28;20025;-68
2021/10/14 04:56:52;;;;;;;9.70;5.13;;;3.30;96.60;;;;;;5026073;28;20033;-68
2021/10/14 04:59:17;;;;;;;10.00;5.60;;;3.30;96.70;;;;;;5019957;28;20040;-67
2021/10/14 05:01:43;;;;;;;9.15;5.60;;;3.30;96.70;;;;;;5024732;28;20040;-67
2021/10/14 05:04:09;;;;;;;9.13;6.07;;;3.30;96.60;;;;;;5028029;28;20025;-67
2021/10/14 05:06:34;;;;;;;8.90;5.32;;;3.30;97.00;;;;;;5025959;28;20501;-67
2021/10/14 05:09:00;;;;;;;12.07;6.25;;;3.40;96.50;;;;;;5025468;28;20037;-67
2021/10/14 05:11:25;;;;;;;7.78;4.55;;;3.40;96.70;;;;;;5028453;28;20029;-67
2021/10/14 05:13:52;;;;;;;10.90;5.90;;;3.40;96.80;;;;;;5021762;28;20561;-67
2021/10/14 05:16:17;;;;;;;10.48;5.47;;;3.40;96.60;;;;;;5025660;28;20041;-67
2021/10/14 05:18:43;;;;;;;9.63;5.70;;;3.40;97.30;;;;;;5023920;28;20032;-67
2021/10/14 05:21:09;;;;;;;9.65;5.80;;;3.40;96.70;;;;;;5025358;28;20033;-66
2021/10/14 05:23:34;;;;;;;11.15;5.53;;;3.40;96.60;;;;;;5025335;28;20040;-66
2021/10/14 05:26:00;;;;;;;11.52;6.05;;;3.40;96.60;;;;;;5024963;28;20483;-67
2021/10/14 05:28:26;;;;;;;10.15;4.70;;;3.40;96.70;;;;;;5025296;28;20155;-66
2021/10/14 05:30:51;;;;;;;8.45;5.22;;;3.40;96.60;;;;;;5023002;28;20040;-67
2021/10/14 05:33:17;;;;;;;7.60;4.60;;;3.40;96.60;;;;;;5023911;28;20174;-67
2021/10/14 05:35:43;;;;;;;8.10;5.50;;;3.40;96.40;;;;;;5021500;28;20057;-67
2021/10/14 05:38:09;;;;;;;7.25;4.75;;;3.40;96.50;;;;;;5020941;28;20033;-67
2021/10/14 05:40:34;;;;;;;11.68;5.93;;;3.50;96.60;;;;;;5023728;28;20421;-66
2021/10/14 05:43:02;;;;;;;12.50;6.13;;;3.40;96.70;;;;;;5018647;28;20037;-67
2021/10/14 05:45:27;;;;;;;17.38;7.32;;;3.40;96.90;;;;;;5025473;28;20497;-67
2021/10/14 05:47:53;;;;;;;10.70;6.68;;;3.40;96.80;;;;;;5021753;28;20017;-67
2021/10/14 05:50:18;;;;;;;11.10;5.82;;;3.40;96.90;;;;;;5022329;28;20040;-67
2021/10/14 05:52:44;;;;;;;10.90;6.22;;;3.40;96.80;;;;;;5023680;28;20545;-67
2021/10/14 05:55:10;;;;;;;10.57;5.63;;;3.50;96.80;;;;;;5030614;28;20024;-67
2021/10/14 05:57:35;;;;;;;14.05;6.78;;;3.40;97.10;;;;;;5033795;28;20104;-67
2021/10/14 06:00:01;;;;;;;12.45;6.55;;;3.50;96.90;;;;;;5033414;28;20451;-68
2021/10/14 06:02:26;;;;;;;10.20;6.25;;;3.50;97.10;;;;;;5027674;28;20487;-67
2021/10/14 06:04:52;;;;;;;9.98;6.13;;;3.50;97.10;;;;;;5028580;28;20021;-67
2021/10/14 06:07:18;;;;;;;9.05;6.15;;;3.50;97.00;;;;;;5028332;28;20048;-67
2021/10/14 06:09:44;;;;;;;11.30;6.75;;;3.50;97.10;;;;;;5028898;28;20057;-68
2021/10/14 06:12:11;;;;;;;11.10;5.45;;;3.60;97.40;;;;;;5027222;28;20035;-67
2021/10/14 06:14:37;;;;;;;9.38;5.50;;;3.60;97.30;;;;;;5024446;28;20572;-68
2021/10/14 06:17:03;;;;;;;10.48;5.30;;;3.60;97.10;;;;;;5028478;28;20025;-67
2021/10/14 06:19:28;;;;;;;9.00;5.75;;;3.60;97.20;;;;;;5017647;28;20868;-68
2021/10/14 06:21:54;;;;;;;10.50;5.47;;;3.60;97.00;;;;;;5026560;28;20048;-67
2021/10/14 06:24:19;;;;;;;9.43;5.50;;;3.70;97.00;;;;;;5029275;28;20022;-68
2021/10/14 06:26:45;;;;;;;8.75;5.28;;;3.60;96.90;;;;;;5028100;28;20108;-67
2021/10/14 06:29:11;;;;;;;7.47;5.22;;;3.60;96.80;;;;;;5028545;28;20032;-67
2021/10/14 06:31:36;;;;;;;13.43;5.85;;;3.70;96.90;;;;;;5028140;28;20034;-67
2021/10/14 06:34:02;;;;;;;9.18;5.80;;;3.70;97.10;;;;;;5031139;28;20073;-67
2021/10/14 06:36:27;;;;;;;11.65;6.25;;;3.80;97.40;;;;;;5030209;28;20033;-67
2021/10/14 06:38:53;;;;;;;10.20;5.90;;;3.80;97.60;;;;;;5030036;28;20520;-67
2021/10/14 06:41:19;;;;;;;14.27;6.82;;;3.80;97.70;;;;;;5029444;28;20129;-67
2021/10/14 06:43:44;;;;;;;13.77;6.82;;;3.90;97.90;;;;;;5027538;28;20445;-67
2021/10/14 06:46:10;;;;;;;9.88;6.15;;;3.90;97.60;;;;;;5029585;28;20056;-67
2021/10/14 06:48:35;;;;;;;11.82;6.97;;;4.00;97.90;;;;;;5029779;28;20022;-67
2021/10/14 06:51:01;;;;;;;13.48;5.15;;;4.00;97.70;;;;;;5044826;28;20048;-67
2021/10/14 06:53:27;;;;;;;14.77;6.88;;;4.00;98.10;;;;;;5027740;28;20675;-67
2021/10/14 06:55:53;;;;;;;12.95;6.57;;;4.10;98.00;;;;;;5027403;28;20032;-67
2021/10/14 06:58:18;;;;;;;12.57;6.30;;;4.20;97.90;;;;;;5027085;28;20043;-67
2021/10/14 07:00:44;;;;;;;16.02;6.97;;;4.20;98.20;;;;;;5029720;28;20387;-67
2021/10/14 07:03:10;;;;;;;13.80;7.50;;;4.20;98.10;;;;;;5028958;28;20636;-67
2021/10/14 07:05:35;;;;;;;12.95;6.97;;;4.30;98.20;;;;;;5028911;28;20048;-67
2021/10/14 07:08:01;;;;;;;13.13;7.05;;;4.30;98.20;;;;;;5027447;28;20410;-67
2021/10/14 07:10:27;;;;;;;15.63;7.63;;;4.40;98.30;;;;;;5029145;28;20424;-67
2021/10/14 07:12:52;;;;;;;14.70;7.10;;;4.40;98.70;;;;;;5028387;28;20091;-67
2021/10/14 07:15:19;;;;;;;12.88;7.30;;;4.50;98.50;;;;;;5032913;28;20104;-68
2021/10/14 07:17:45;;;;;;;12.80;7.20;;;4.50;98.30;;;;;;5029258;28;20029;-67
2021/10/14 07:20:11;;;;;;;12.52;6.10;;;4.50;98.20;;;;;;5026775;28;20072;-67
2021/10/14 07:22:37;;;;;;;14.43;6.82;;;4.60;98.10;;;;;;5029990;28;20045;-67
2021/10/14 07:25:04;;;;;;;14.75;7.35;;;4.60;98.10;;;;;;5025995;28;21924;-67
2021/10/14 07:27:30;;;;;;;16.92;6.53;;;4.60;98.30;;;;;;5028819;28;20108;-67
2021/10/14 07:29:56;;;;;;;12.60;7.38;;;4.70;98.20;;;;;;5028733;28;20113;-67
2021/10/14 07:32:22;;;;;;;12.93;6.47;;;4.70;98.40;;;;;;5027126;28;20041;-68
2021/10/14 07:34:48;;;;;;;11.73;7.45;;;4.80;98.60;;;;;;5027631;28;20091;-69
2021/10/14 07:37:18;;;;;;;11.65;6.00;;;4.80;98.30;;;;;;5028133;28;20108;-68
2021/10/14 07:39:44;;;;;;;14.65;7.18;;;4.90;98.30;;;;;;5028620;28;20445;-68
2021/10/14 07:42:10;;;;;;;13.90;7.50;;;5.00;98.70;;;;;;5029223;28;20490;-68
2021/10/14 07:44:36;;;;;;;10.65;7.13;;;5.00;98.70;;;;;;5027625;28;20140;-69
2021/10/14 07:47:01;;;;;;;14.02;8.00;;;5.00;97.90;;;;;;5027675;28;20128;-68
2021/10/14 07:49:27;;;;;;;17.92;7.50;;;5.00;97.90;;;;;;5027716;28;20112;-69
2021/10/14 07:51:53;;;;;;;14.00;7.13;;;5.10;98.40;;;;;;5029037;28;20030;-68
2021/10/14 07:54:18;;;;;;;13.15;7.45;;;5.20;98.20;;;;;;5027125;28;20025;-68
2021/10/14 07:56:44;;;;;;;12.80;7.50;;;5.20;98.20;;;;;;5028835;28;20021;-68
2021/10/14 07:59:09;;;;;;;14.68;7.35;;;5.20;97.80;;;;;;5025621;28;20029;-69
2021/10/14 08:01:35;;;;;;;15.57;7.85;;;5.30;98.20;;;;;;5029375;28;20124;-68
2021/10/14 08:04:02;;;;;;;11.77;6.72;;;5.30;98.50;;;;;;5030719;28;20025;-69
2021/10/14 08:06:28;;;;;;;12.05;6.43;;;5.40;98.30;;;;;;5043095;28;20032;-70
2021/10/14 08:08:54;;;;;;;13.65;6.05;;;5.40;98.30;;;;;;5026455;28;20022;-68
2021/10/14 08:11:19;;;;;;;11.73;6.35;;;5.50;98.20;;;;;;5027017;28;20067;-69
2021/10/14 08:13:45;;;;;;;15.40;7.25;;;5.50;97.90;;;;;;5026846;28;20028;-69
2021/10/14 08:16:11;;;;;;;15.48;7.80;;;5.50;97.60;;;;;;5026858;28;20041;-68
2021/10/14 08:18:37;;;;;;;12.38;6.13;;;5.50;98.20;;;;;;5024251;28;20838;-69
2021/10/14 08:21:03;;;;;;;13.63;7.43;;;5.60;98.00;;;;;;5027851;28;20025;-68
2021/10/14 08:23:29;;;;;;;15.07;7.28;;;5.60;97.80;;;;;;5027674;28;20036;-68
2021/10/14 08:25:56;;;;;;;13.68;6.43;;;5.60;97.80;;;;;;5025507;28;20022;-69
2021/10/14 08:28:23;;;;;;;10.77;6.15;;;5.70;97.90;;;;;;5015862;28;20025;-69
2021/10/14 08:30:50;;;;;;;16.07;7.07;;;5.70;98.00;;;;;;5021445;28;20402;-68
2021/10/14 08:33:16;;;;;;;15.68;7.15;;;5.80;98.00;;;;;;5031026;28;20037;-69
2021/10/14 08:35:42;;;;;;;13.65;7.65;;;5.90;98.40;;;;;;5032314;28;20043;-69
2021/10/14 08:38:09;;;;;;;10.75;6.43;;;5.90;97.90;;;;;;5018831;28;20026;-69
2021/10/14 08:40:37;;;;;;;13.88;6.72;;;5.90;97.40;;;;;;5026894;28;20033;-69
2021/10/14 08:43:12;;;;;;;15.20;7.70;;;5.90;97.70;;;;;;5026066;28;20104;-69
2021/10/14 08:45:41;;;;;;;11.43;7.05;;;6.00;97.80;;;;;;5029640;28;20048;-69
2021/10/14 08:48:07;;;;;;;13.85;7.47;;;6.00;97.70;;;;;;5029439;28;20478;-69
2021/10/14 08:50:35;;;;;;;15.38;7.70;;;6.10;97.80;;;;;;5028035;28;20044;-69
2021/10/14 08:53:00;;;;;;;12.83;7.37;;;6.20;97.60;;;;;;5022795;28;20048;-68
2021/10/14 08:55:30;;;;;;;11.93;7.15;;;6.20;97.20;;;;;;5027455;28;20021;-69
2021/10/14 08:57:57;;;;;;;13.75;7.18;;;6.30;97.40;;;;;;5021707;28;20025;-69
2021/10/14 09:00:22;;;;;;;11.30;6.43;;;6.30;97.20;;;;;;5026494;28;20045;-69
2021/10/14 09:02:48;;;;;;;10.35;5.55;;;6.40;97.10;;;;;;5024982;28;20030;-69
2021/10/14 09:05:15;;;;;;;11.48;6.85;;;6.40;96.60;;;;;;5028368;28;20552;-69
2021/10/14 09:07:41;;;;;;;12.35;6.20;;;6.50;97.10;;;;;;5023513;28;20060;-69
2021/10/14 09:10:13;;;;;;;13.43;6.30;;;6.50;97.00;;;;;;5022594;28;20035;-69
2021/10/14 09:12:40;;;;;;;11.32;5.82;;;6.60;96.80;;;;;;5027757;28;20125;-68
2021/10/14 09:15:15;;;;;;;11.93;6.73;;;6.60;96.70;;;;;;5023825;28;20034;-69
2021/10/14 09:17:48;;;;;;;11.20;6.47;;;6.70;96.60;;;;;;5026869;28;20037;-69
2021/10/14 09:20:30;;;;;;;12.13;6.00;;;6.80;97.20;;;;;;5027731;28;20018;-69
2021/10/14 09:23:00;;;;;;;9.90;5.63;;;6.90;96.50;;;;;;5024795;28;20021;-69
2021/10/14 09:25:36;;;;;;;10.52;6.20;;;6.90;95.90;;;;;;5024673;28;20052;-69
2021/10/14 09:28:26;;;;;;;11.15;5.75;;;6.90;96.00;;;;;;5025507;28;20035;-69
2021/10/14 09:30:51;;;;;;;13.75;6.82;;;6.90;96.10;;;;;;5025589;28;20041;-69
2021/10/14 09:33:32;;;;;;;13.10;6.70;;;7.00;96.00;;;;;;5029494;28;20058;-69
2021/10/14 09:36:20;;;;;;;10.80;6.05;;;7.00;96.10;;;;;;5031070;28;20089;-69
2021/10/14 09:38:52;;;;;;;10.30;5.97;;;7.00;95.20;;;;;;5025182;28;20025;-69
2021/10/14 09:41:21;;;;;;;9.43;5.72;;;7.10;95.30;;;;;;5030424;28;20033;-66
2021/10/14 09:43:49;;;;;;;10.65;6.13;;;7.20;95.40;;;;;;5030379;28;20375;-66
2021/10/14 09:46:48;;;;;;;10.20;6.10;;;7.20;94.90;;;;;;5030977;28;20347;-67
2021/10/14 09:49:25;;;;;;;9.60;5.35;;;7.20;94.70;;;;;;5026654;28;20029;-67
2021/10/14 09:51:51;;;;;;;10.75;5.50;;;7.30;94.50;;;;;;5030062;28;20030;-67
2021/10/14 09:54:17;;;;;;;9.60;4.90;;;7.40;94.50;;;;;;5028961;28;20038;-67
2021/10/14 09:56:44;;;;;;;8.90;5.05;;;7.40;94.20;;;;;;5032243;28;20022;-66
2021/10/14 09:59:09;;;;;;;8.05;5.28;;;7.40;94.50;;;;;;5028105;28;20475;-66
2021/10/14 10:01:38;;;;;;;7.25;4.82;;;7.40;94.60;;;;;;5028209;28;20080;-66
2021/10/14 10:04:04;;;;;;;8.43;5.63;;;7.50;94.20;;;;;;5028396;28;20036;-66
2021/10/14 10:06:33;;;;;;;7.65;4.72;;;7.50;94.00;;;;;;5030990;28;20075;-66
2021/10/14 10:09:14;;;;;;;8.20;4.80;;;7.50;93.50;;;;;;5029331;28;20152;-66
2021/10/14 10:11:49;;;;;;;10.35;5.53;;;7.50;92.70;;;;;;5031546;28;20116;-66
2021/10/14 10:14:16;;;;;;;8.98;5.50;;;7.50;93.70;;;;;;5027973;28;20064;-68
2021/10/14 10:17:08;;;;;;;11.95;5.47;;;7.50;94.20;;;;;;5029958;28;20040;-68
2021/10/14 10:19:42;;;;;;;9.75;5.63;;;7.70;94.60;;;;;;5030164;28;20628;-68
2021/10/14 10:22:09;;;;;;;10.38;4.85;;;7.70;93.80;;;;;;5030591;28;20058;-68
2021/10/14 10:24:35;;;;;;;9.05;4.93;;;7.80;94.10;;;;;;5028479;28;20091;-68
2021/10/14 10:27:03;;;;;;;11.77;5.28;;;7.90;93.80;;;;;;5031248;28;20037;-68
2021/10/14 10:29:29;;;;;;;9.27;5.28;;;7.90;93.00;;;;;;5029473;28;20104;-68
2021/10/14 10:34:34;;;;;;;9.88;4.43;;;8.00;93.20;;;;;;5029897;28;20041;-68
2021/10/14 10:37:20;;;;;;;6.43;4.65;;;8.10;92.90;;;;;;5024007;28;20738;-68
2021/10/14 10:39:54;;;;;;;8.27;4.38;;;8.20;92.50;;;;;;5028021;28;20474;-68
2021/10/14 10:42:38;;;;;;;6.47;4.35;;;8.10;92.50;;;;;;5029039;28;20033;-68
2021/10/14 10:45:06;;;;;;;8.73;5.00;;;8.30;92.10;;;;;;5032659;28;20109;-68
2021/10/14 10:47:45;;;;;;;7.15;4.55;;;8.40;92.20;;;;;;5027162;28;20034;-67
2021/10/14 10:50:17;;;;;;;7.93;5.13;;;8.50;92.20;;;;;;5031633;28;20032;-68
2021/10/14 10:52:46;;;;;;;7.65;4.25;;;8.50;91.70;;;;;;5027147;28;20072;-68
2021/10/14 10:55:22;;;;;;;7.18;4.20;;;8.70;92.00;;;;;;5030827;28;20052;-68
2021/10/14 10:57:50;;;;;;;6.65;4.15;;;8.70;90.80;;;;;;5028223;28;20140;-68
2021/10/14 11:00:17;;;;;;;;;;;8.60;91.00;;;;;;5025149;28;20040;-67
2021/10/14 11:02:43;;;;;;;7.53;4.00;;;8.80;91.40;;;;;;5028348;28;19959;-68
2021/10/14 11:05:09;;;;;;;9.02;4.30;;;8.90;91.40;;;;;;5026733;28;20026;-68
2021/10/14 11:07:35;;;;;;;6.18;4.13;;;9.10;90.60;;;;;;5029136;28;20030;-67
2021/10/14 11:10:01;;;;;;;7.88;4.20;;;9.20;89.50;;;;;;5025853;28;20487;-67
2021/10/14 11:12:26;;;;;;;8.15;4.15;;;9.20;89.10;;;;;;5028893;28;20104;-67
2021/10/14 11:14:52;;;;;;;8.25;3.70;;;9.20;90.00;;;;;;5028536;28;20038;-67
2021/10/14 11:17:18;;;;;;;7.43;4.28;;;9.20;88.70;;;;;;5022270;28;20033;-67
2021/10/14 11:19:44;;;;;;;6.65;4.28;;;9.10;87.60;;;;;;5029503;28;20056;-67
2021/10/14 11:22:18;;;;;;;6.93;3.80;;;9.20;89.30;;;;;;5029248;28;20041;-67
2021/10/14 11:24:47;;;;;;;5.68;3.45;;;9.40;89.40;;;;;;5028111;28;20026;-68
2021/10/14 11:27:18;;;;;;;4.93;3.72;;;9.50;87.00;;;;;;5029142;28;20025;-67
2021/10/14 11:29:45;;;;;;;4.78;3.03;;;9.60;88.30;;;;;;5027919;28;20029;-68
2021/10/14 11:32:17;;;;;;;5.43;3.05;;;9.60;84.90;;;;;;5028321;28;20044;-67
2021/10/14 11:34:43;;;;;;;4.82;3.10;;;9.70;83.50;;;;;;5027412;28;20415;-67
2021/10/14 11:37:13;;;;;;;5.13;2.63;;;9.60;84.80;;;;;;5027842;28;20029;-68
2021/10/14 11:39:48;;;;;;;4.35;2.50;;;9.80;84.00;;;;;;5021899;28;20040;-68
2021/10/14 11:42:19;;;;;;;2.88;2.33;;;9.80;83.70;;;;;;5019240;28;20026;-68
2021/10/14 11:44:52;;;;;;;3.13;2.20;;;9.90;84.00;;;;;;5026484;28;20093;-67
2021/10/14 11:47:20;;;;;;;5.07;2.85;;;9.80;80.80;;;;;;5021243;28;20079;-68
2021/10/14 11:49:56;;;;;;;4.40;2.50;;;9.60;81.40;;;;;;5027992;28;20052;-68
2021/10/14 11:52:22;;;;;;;4.75;3.05;;;9.50;80.80;;;;;;5020852;28;20417;-68
2021/10/14 11:54:48;;;;;;;2.92;2.45;;;9.60;82.70;;;;;;5028563;28;20044;-67
2021/10/14 11:57:14;;;;;;;3.92;2.45;;;9.70;82.60;;;;;;5025860;28;20029;-68
2021/10/14 11:59:39;;;;;;;3.47;2.60;;;9.80;82.00;;;;;;5028060;28;20036;-68
2021/10/14 12:02:18;;;;;;;4.07;2.55;;;9.90;82.20;;;;;;5040842;28;20049;-71
2021/10/14 12:04:46;;;;;;;4.68;2.65;;;9.90;81.80;;;;;;5026989;28;20028;-68
2021/10/14 12:07:29;;;;;;;4.43;2.88;;;9.90;80.90;;;;;;5027890;28;20486;-68
2021/10/14 12:09:56;;;;;;;4.60;2.28;;;10.00;82.20;;;;;;5023353;28;20028;-68
2021/10/14 12:12:29;;;;;;;5.70;2.53;;;10.00;80.80;;;;;;5028382;28;20029;-68
2021/10/14 12:14:59;;;;;;;3.75;2.38;;;10.10;79.50;;;;;;5026799;28;20027;-67
2021/10/14 12:17:39;;;;;;;3.45;2.42;;;10.10;79.10;;;;;;5024973;28;20496;-68
2021/10/14 12:20:13;;;;;;;5.05;2.42;;;10.00;77.60;;;;;;5023897;28;20030;-68
2021/10/14 12:22:41;;;;;;;3.08;2.22;;;10.00;78.60;;;;;;5026402;28;20131;-68
2021/10/14 12:25:07;;;;;;;3.55;2.67;;;10.10;80.80;;;;;;5026893;28;20401;-68
2021/10/14 12:27:47;;;;;;;3.45;2.58;;;10.30;81.10;;;;;;5028072;28;20051;-68
2021/10/14 12:30:32;;;;;;;3.30;2.30;;;10.30;78.00;;;;;;5023252;28;20068;-68
2021/10/14 12:33:18;;;;;;;2.17;1.73;;;10.40;79.20;;;;;;5027652;28;20804;-68
2021/10/14 12:35:59;;;;;;;3.92;2.42;;;10.40;77.50;;;;;;5022069;28;20410;-68
2021/10/14 12:38:41;;;;;;;2.75;2.25;;;10.40;78.50;;;;;;5027133;28;20100;-68
2021/10/14 12:41:15;;;;;;;3.65;2.00;;;10.40;78.00;;;;;;5023627;28;20553;-67
2021/10/14 12:44:04;;;;;;;3.17;2.00;;;10.50;78.90;;;;;;5035684;28;20128;-68
2021/10/14 12:46:55;;;;;;;2.95;2.28;;;10.50;79.60;;;;;;5026640;28;20128;-68
2021/10/14 12:51:58;;;;;;;4.03;2.67;;;10.70;78.50;;;;;;5024081;28;20041;-68
2021/10/14 12:54:26;;;;;;;3.60;2.30;;;10.70;76.70;;;;;;5021342;28;20017;-69
2021/10/14 12:56:58;;;;;;;3.03;2.60;;;10.70;78.50;;;;;;5025774;28;20036;-71
2021/10/14 12:59:26;;;;;;;5.28;2.35;;;10.80;78.00;;;;;;5026858;28;20025;-68
2021/10/14 13:01:57;;;;;;;3.38;2.30;;;10.80;77.40;;;;;;5026376;28;20032;-68